Bookmark and Share
Track history (hours):
 

Victoria

Last reported at 2014-Apr-21 09:33 UTC. Time now 2014-Apr-21 10:09 UTC.
Position N 37°33' E 122°06'.

Length 19 m.

Type: Pleasure craft. MMSI: 211150030.

NotesDate/timePositionNaut miles runAvg speedWind from/ knotsBaromVisibWave heightAir tempDewpointWater temp
2014-Apr-21 09:33N 37°33' E 122°06'81036468.6
2014-Apr-21 09:31N 24°30' E 118°04'810820.1
2014-Apr-21 08:32N 37°33' E 122°06'81060740.0
2014-Apr-21 08:31N 24°30' E 118°04'4694651.9
2014-Apr-21 08:25N 32°00' E 120°34'101078.6
2014-Apr-21 08:25N 31°58' E 120°22'5 5.3
2014-Apr-21 07:32N 31°57' E 120°17'6651197477.9
2014-Apr-21 07:32N 22°18' E 114°08'25418290.6
2014-Apr-21 07:31N 24°30' E 118°04'8198902.1
2014-Apr-21 07:26N 37°42' E 122°05'819909.7
2014-Apr-21 06:32N 24°30' E 118°04'0 0.0
2014-Apr-21 05:31N 24°30' E 118°04'0 0.0
2014-Apr-21 04:31N 24°30' E 118°04'0 0.0
2014-Apr-21 03:31N 24°30' E 118°04'0 0.0
2014-Apr-21 02:25N 24°30' E 118°04'0 0.0
2014-Apr-21 01:31N 24°30' E 118°04'254182.4
2014-Apr-21 00:07N 22°19' E 114°08'0 0.0
2014-Apr-20 22:07N 22°19' E 114°08'0 0.0
2014-Apr-20 19:04N 22°19' E 114°08'0 0.0
2014-Apr-20 14:30N 22°19' E 114°08'0 0.0
2014-Apr-20 13:30N 22°19' E 114°08'6633723.2
2014-Apr-20 13:20N 31°56' E 120°13'663806.6
2014-Apr-20 12:30N 22°19' E 114°08'66331821.1
2014-Apr-20 12:29N 31°56' E 120°13'920.9
2014-Apr-20 12:04N 31°58' E 120°03'6601181.7
2014-Apr-20 11:30N 22°19' E 114°08'6618563.8
2014-Apr-20 11:26N 31°55' E 120°12'327.4
2014-Apr-20 11:19N 31°57' E 120°09'5 6.7
2014-Apr-20 10:33N 31°57' E 120°15'8371.4
2014-Apr-20 10:32N 31°57' E 120°06'6323.9
2014-Apr-20 10:31N 31°56' E 120°13'35316066.6
2014-Apr-20 10:30N 37°38' E 121°58'3533303.0
2014-Apr-20 10:23N 31°57' E 120°06'2086.7
2014-Apr-20 10:09N 32°02' E 120°30'1729.2
2014-Apr-20 09:33N 31°56' E 120°10'101855.0
2014-Apr-20 09:33N 31°59' E 120°22'8412.5
2014-Apr-20 09:32N 31°56' E 120°13'15524.6
2014-Apr-20 09:30N 32°02' E 120°30'2 2.0
2014-Apr-20 08:30N 32°02' E 120°27'13271.5
2014-Apr-20 08:27N 31°56' E 120°14'663732.8
2014-Apr-20 07:33N 22°19' E 114°08'6766287.4
2014-Apr-20 07:26N 32°01' E 120°33'1768.1
2014-Apr-20 07:12N 31°56' E 120°14'0 0.0
2014-Apr-20 06:24N 31°56' E 120°14'6633448.0
2014-Apr-20 06:12N 22°19' E 114°08'663803.4
2014-Apr-20 05:23N 31°56' E 120°14'6633682.1
2014-Apr-20 05:12N 22°19' E 114°08'673807.2
2014-Apr-20 04:22N 32°02' E 120°24'111837.1
2014-Apr-20 04:22N 31°56' E 120°14'911.5
2014-Apr-20 03:33N 32°01' E 120°23'9146.6
2014-Apr-20 03:29N 31°56' E 120°14'0 0.0
2014-Apr-20 02:04N 31°56' E 120°14'41623046.8
2014-Apr-20 02:03N 38°46' E 121°39'4 8.3
2014-Apr-20 01:33N 38°47' E 121°34'416341.3
2014-Apr-20 00:19N 31°56' E 120°14'0 0.0
2014-Apr-19 23:30N 31°56' E 120°14'0 0.0
2014-Apr-19 21:28N 31°56' E 120°14'8 8.6
2014-Apr-19 20:33N 31°58' E 120°23'857.2
2014-Apr-19 20:25N 31°56' E 120°13'3 3.7
2014-Apr-19 19:34N 31°57' E 120°17'54151802.3
2014-Apr-19 16:33N 49°18' W 123°02'5424271180.8
2014-Apr-19 16:32N 31°58' E 120°04'5 5.4
2014-Apr-19 15:33N 31°57' E 120°10'54132165344.9
2014-Apr-19 15:33N 49°19' W 123°10'58865882.6
2014-Apr-19 14:33N 22°33' E 120°17'56453466.8
2014-Apr-19 14:33N 31°57' E 120°17'5403347310.8
2014-Apr-19 14:32N 49°21' W 123°16'3 2.6
2014-Apr-19 13:33N 49°19' W 123°18'5396353186.6
2014-Apr-19 13:33N 31°60' E 120°22'8407.6
2014-Apr-19 13:31N 31°57' E 120°14'564156080.7
2014-Apr-19 13:31N 22°33' E 120°07'563586.4
2014-Apr-19 12:34N 31°56' E 120°11'54032778685.0
2014-Apr-19 12:34N 49°18' W 123°25'53841292214.8
2014-Apr-19 12:33N 32°02' E 120°29'933840.4
2014-Apr-19 12:33N 31°58' E 120°19'1212.0
2014-Apr-19 11:33N 31°57' E 120°04'1715575.4
2014-Apr-19 11:33N 32°01' E 120°24'101428.7
2014-Apr-19 11:33N 32°00' E 120°36'5377921725.6
2014-Apr-19 11:32N 49°18' W 123°30'53705467.4
2014-Apr-19 10:33N 32°01' E 120°45'111352.2
2014-Apr-19 10:33N 32°02' E 120°31'5373604474.5
2014-Apr-19 10:32N 49°20' W 123°37'539968921.6
2014-Apr-19 10:28N 32°00' E 119°58'53935971.4
2014-Apr-19 09:33N 49°22' W 123°44'535620981.0
2014-Apr-19 09:18N 31°55' E 120°53'53507192.4
2014-Apr-19 08:33N 49°20' W 123°53'6 5.9
2014-Apr-19 07:33N 49°20' W 124°03'4 4.4
2014-Apr-19 06:33N 49°21' W 124°09'534920550.3
2014-Apr-19 06:17N 32°01' E 120°32'53577250.1
2014-Apr-19 05:33N 49°21' W 123°58'535924484.8
2014-Apr-19 05:19N 32°02' E 120°28'4 5.5
2014-Apr-19 04:34N 31°60' E 120°23'5373175829.7
2014-Apr-19 04:32N 49°16' W 123°50'1 1.1
2014-Apr-19 03:30N 49°15' W 123°50'536424600.8
2014-Apr-19 03:17N 31°60' E 120°36'18724.5
2014-Apr-19 03:15N 31°56' E 120°15'1420.7
2014-Apr-19 02:33N 32°01' E 120°31'5362482539.7
2014-Apr-19 02:33N 49°15' W 123°57'483216197.4
2014-Apr-19 02:15N 35°07' E 129°03'471677.8
2014-Apr-19 01:33N 32°00' E 120°24'53621135446.3
2014-Apr-19 01:33N 49°17' W 124°03'4 4.3
2014-Apr-19 00:33N 49°19' W 124°09'536421894.6
2014-Apr-19 00:18N 31°57' E 120°17'4762055.6
2014-Apr-19 00:04N 35°05' E 129°02'48279234.2
2014-Apr-18 23:33N 49°21' W 124°03'5371189579.8
2014-Apr-18 23:31N 31°56' E 120°14'12330.9
2014-Apr-18 23:29N 31°59' E 120°01'53865760.6
2014-Apr-18 22:33N 49°20' W 123°53'5383587185.6
2014-Apr-18 22:32N 31°57' E 120°08'2267.5
2014-Apr-18 22:32N 31°56' E 120°10'6 6.0
2014-Apr-18 21:33N 31°57' E 120°16'53841762003.8
2014-Apr-18 21:33N 49°20' W 123°43'539319649.2
2014-Apr-18 21:17N 31°57' E 120°05'1622.5
2014-Apr-18 20:33N 32°00' E 120°24'5382245265.4
2014-Apr-18 20:32N 49°19' W 123°34'540133467.2
2014-Apr-18 20:22N 31°58' E 120°01'54086651.2
2014-Apr-18 19:33N 49°19' W 123°25'53821291714.9
2014-Apr-18 19:33N 32°02' E 120°31'5 5.4
2014-Apr-18 18:34N 32°00' E 120°38'5387510334.1
2014-Apr-18 18:33N 49°19' W 123°15'3 2.9
2014-Apr-18 17:33N 49°20' W 123°11'538918582.8
2014-Apr-18 17:16N 32°00' E 120°38'53867597.4
2014-Apr-18 16:33N 49°20' W 123°15'538638091.3
2014-Apr-18 16:25N 32°00' E 120°38'0 0.0
2014-Apr-18 15:31N 32°00' E 120°38'1 0.5
2014-Apr-18 14:25N 32°00' E 120°39'0 0.0
2014-Apr-18 13:30N 32°00' E 120°39'2 2.4
2014-Apr-18 12:32N 32°00' E 120°42'5 4.6
2014-Apr-18 11:32N 32°01' E 120°47'10579.8
2014-Apr-18 11:31N 31°60' E 120°36'2 9.9
2014-Apr-18 11:19N 31°60' E 120°38'7 9.1
2014-Apr-18 10:33N 32°02' E 120°30'4342.4
2014-Apr-18 10:32N 32°00' E 120°35'8 8.2
2014-Apr-18 09:33N 32°01' E 120°26'721719.7
2014-Apr-18 08:33N 21°51' E 113°15'31069755.5
2014-Apr-18 08:33N 24°30' E 118°04'465186081.2
2014-Apr-18 08:33N 31°59' E 120°22'5 5.5
2014-Apr-18 07:33N 31°56' E 120°16'71231248.9
2014-Apr-18 07:32N 21°53' E 113°12'7109688.1
2014-Apr-18 07:28N 31°56' E 120°13'46147383.7
2014-Apr-18 07:27N 24°30' E 118°04'0 0.0
2014-Apr-18 06:33N 24°30' E 118°04'85624856.4
2014-Apr-18 06:31N 35°07' E 129°03'115361942.5
2014-Apr-18 06:30N 21°52' E 113°13'7115118.0
2014-Apr-18 06:22N 31°56' E 120°13'223.5
2014-Apr-18 06:18N 31°56' E 120°12'709962.7
2014-Apr-18 05:33N 21°52' E 113°14'31058680.1
2014-Apr-18 05:33N 24°30' E 118°04'4594262.3
2014-Apr-18 05:27N 31°56' E 120°07'67928425.3
2014-Apr-18 05:25N 22°14' E 113°35'6822802.6
2014-Apr-18 05:11N 31°56' E 120°13'461737.1
2014-Apr-18 04:33N 24°30' E 118°04'8564274.9
2014-Apr-18 04:21N 35°07' E 129°03'4813027.6
2014-Apr-18 04:12N 31°56' E 120°13'1611861.4
2014-Apr-18 04:06N 29°57' E 122°19'397713.7
2014-Apr-18 03:33N 24°30' E 118°04'4618418.3
2014-Apr-18 03:30N 31°56' E 120°13'7093215.9
2014-Apr-18 03:16N 21°53' E 113°16'2 2.5
2014-Apr-18 02:31N 21°52' E 113°14'7119336.8
2014-Apr-18 02:26N 31°56' E 120°13'714809.5
2014-Apr-18 01:33N 21°51' E 113°10'7146890.3
2014-Apr-18 01:27N 31°56' E 120°13'0 0.0
2014-Apr-18 00:33N 31°56' E 120°13'71525237.9
2014-Apr-18 00:32N 21°50' E 113°09'715685.2
2014-Apr-17 23:29N 31°56' E 120°13'715128742.8
2014-Apr-17 23:29N 21°50' E 113°07'714128472.9
2014-Apr-17 23:28N 31°57' E 120°09'6802659.7
2014-Apr-17 23:13N 22°14' E 113°35'621059776.8
2014-Apr-17 23:07N 49°21' W 123°16'54069615.0
2014-Apr-17 22:33N 31°56' E 120°13'21470.9
2014-Apr-17 22:33N 31°57' E 120°16'5404463169.9
2014-Apr-17 22:32N 49°21' W 123°16'5404243179.2
2014-Apr-17 22:31N 31°57' E 120°15'1209.4
2014-Apr-17 22:31N 31°57' E 120°14'6632105.5
2014-Apr-17 22:12N 22°27' E 113°53'61929661.9
2014-Apr-17 21:33N 49°19' W 123°09'54033890460.4
2014-Apr-17 21:33N 31°59' E 120°22'1116.6
2014-Apr-17 21:33N 31°59' E 120°21'9152.9
2014-Apr-17 21:29N 31°56' E 120°11'1617.1
2014-Apr-17 20:32N 32°02' E 120°28'1117.6
2014-Apr-17 20:31N 32°02' E 120°27'7 7.1
2014-Apr-17 19:33N 32°01' E 120°35'018.9
2014-Apr-17 19:31N 32°01' E 120°35'683469.6
2014-Apr-17 18:04N 22°45' E 113°09'54 4.7
2014-Apr-17 06:33N 21°52' E 113°18'51448.6
2014-Apr-17 06:26N 22°38' E 113°41'2664392.5
2014-Apr-17 06:22N 24°30' E 118°04'2823002.6
2014-Apr-17 06:17N 22°14' E 113°35'2432.5
2014-Apr-17 05:32N 22°38' E 113°41'6715108.7
2014-Apr-17 05:24N 31°60' E 120°34'5307.2
2014-Apr-17 05:23N 32°04' E 120°31'47329331.2
2014-Apr-17 05:22N 24°30' E 118°04'469572.9
2014-Apr-17 04:33N 31°60' E 120°34'7582.1
2014-Apr-17 04:33N 32°03' E 120°26'4706794.1
2014-Apr-17 04:28N 24°30' E 118°04'2821116.5
2014-Apr-17 04:13N 22°14' E 113°35'6941041.8
2014-Apr-17 03:33N 31°60' E 120°34'4695743.3
2014-Apr-17 03:28N 24°30' E 118°04'2666696.5
2014-Apr-17 03:26N 22°38' E 113°41'25696.0
2014-Apr-17 03:24N 22°14' E 113°35'1 6.5
2014-Apr-17 03:17N 22°14' E 113°35'694895.8
2014-Apr-17 02:30N 31°60' E 120°34'46915211.9
2014-Apr-17 02:28N 24°30' E 118°04'2821018.3
2014-Apr-17 02:12N 22°14' E 113°35'2234.6
2014-Apr-17 01:33N 21°55' E 113°22'71713232.4
2014-Apr-17 01:30N 31°60' E 120°34'69425245.5
2014-Apr-17 01:29N 22°14' E 113°35'282101489.0
2014-Apr-17 01:28N 24°30' E 118°04'262286.7
2014-Apr-17 00:34N 22°24' E 113°54'677116116.1
2014-Apr-17 00:33N 31°60' E 120°34'6948990.2
2014-Apr-17 00:29N 22°14' E 113°35'2821386.4
2014-Apr-17 00:16N 24°30' E 118°04'2951482.5
2014-Apr-17 00:04N 21°58' E 113°29'3770.6
2014-Apr-16 23:33N 22°28' E 113°52'675607065.2
2014-Apr-16 23:33N 31°60' E 120°34'6948831.3
2014-Apr-16 23:28N 22°14' E 113°35'2821014694.6
2014-Apr-16 23:28N 24°30' E 118°04'281306.4
2014-Apr-16 22:33N 22°14' E 113°36'2813444.3
2014-Apr-16 22:28N 24°30' E 118°04'39784137.2
2014-Apr-16 22:28N 29°57' E 122°19'15532769.7
2014-Apr-16 22:28N 32°01' E 120°31'3253.4
2014-Apr-16 22:27N 31°60' E 120°34'2272.9
2014-Apr-16 22:09N 31°57' E 120°08'460675.6
2014-Apr-16 21:28N 24°30' E 118°04'46935191.8
2014-Apr-16 21:27N 32°01' E 120°31'52219375.9
2014-Apr-16 21:26N 23°43' E 117°32'5226593.3
2014-Apr-16 21:21N 32°00' E 120°34'16438.3
2014-Apr-16 21:19N 31°57' E 120°15'68211113.8
2014-Apr-16 21:15N 22°14' E 113°36'687983.9
2014-Apr-16 20:33N 31°59' E 120°21'686411638.9
2014-Apr-16 20:33N 22°15' E 113°37'693498957.4
2014-Apr-16 20:33N 32°00' E 120°34'706317516.8
2014-Apr-16 20:33N 22°01' E 113°35'2883695.4
2014-Apr-16 20:28N 24°30' E 118°04'3741076.4
2014-Apr-16 20:07N 29°36' E 122°06'6 9.7
2014-Apr-16 19:33N 29°41' E 122°02'63110045.2
2014-Apr-16 19:29N 22°20' E 113°41'27416729.8
2014-Apr-16 19:28N 24°30' E 118°04'47031305.6
2014-Apr-16 19:27N 32°02' E 120°28'6106.5
2014-Apr-16 19:24N 32°00' E 120°34'153180.8
2014-Apr-16 18:33N 29°49' E 122°06'3854501.7
2014-Apr-16 18:28N 24°30' E 118°04'46924121.8
2014-Apr-16 18:27N 32°00' E 120°34'147163.7
2014-Apr-16 17:33N 29°55' E 122°04'39320486.4
2014-Apr-16 17:32N 24°26' E 118°03'259263.0
2014-Apr-16 16:33N 22°27' E 113°53'62786874.0
2014-Apr-16 16:33N 29°59' E 121°57'394352.7
2014-Apr-16 15:26N 24°23' E 118°06'6 6.1
2014-Apr-16 14:29N 24°19' E 118°10'4012421.0
2014-Apr-16 14:20N 30°09' E 121°52'410522.3
2014-Apr-16 13:32N 24°12' E 118°05'4126862.3
2014-Apr-16 13:29N 30°12' E 121°51'659593.5
2014-Apr-16 12:22N 22°03' E 113°39'265971.4
2014-Apr-16 12:06N 24°02' E 117°57'272485.5
2014-Apr-16 11:32N 21°59' E 113°33'2674733.2
2014-Apr-16 11:29N 23°57' E 117°53'259643.3
2014-Apr-16 11:05N 22°14' E 113°35'364698.2
2014-Apr-16 10:34N 22°32' E 120°09'1512543.7
2014-Apr-16 10:30N 23°50' E 117°48'7 7.5
2014-Apr-16 09:33N 23°45' E 117°43'15931716.1
2014-Apr-16 09:33N 22°33' E 120°17'563551.7
2014-Apr-16 08:31N 31°56' E 120°13'5154196.0
2014-Apr-16 08:24N 23°40' E 117°37'519612.5
2014-Apr-16 07:33N 31°58' E 120°19'6861810.4
2014-Apr-16 07:10N 22°14' E 113°35'6921104.2
2014-Apr-16 06:33N 32°02' E 120°24'176466.0
2014-Apr-16 06:10N 34°50' E 119°24'174284.7
2014-Apr-16 05:33N 32°04' E 120°28'17444698.1
2014-Apr-16 05:33N 34°50' E 119°24'64617341.9
2014-Apr-16 05:31N 24°05' E 118°44'317740.5
2014-Apr-16 05:05N 21°58' E 113°29'7141321.5
2014-Apr-16 04:33N 32°04' E 120°31'1761661.4
2014-Apr-16 04:27N 34°51' E 119°23'8319589.8
2014-Apr-16 04:21N 21°59' E 113°32'711879.4
2014-Apr-16 03:33N 32°03' E 120°34'319383260.5
2014-Apr-16 03:33N 26°47' E 119°43'4392964.9
2014-Apr-16 03:24N 22°02' E 113°36'4 4.8
2014-Apr-16 02:33N 22°05' E 113°39'70345986.5
2014-Apr-16 02:32N 32°02' E 120°35'29524.7
2014-Apr-16 02:29N 31°59' E 120°01'314982.4
2014-Apr-16 02:10N 26°45' E 119°42'72510405.1
2014-Apr-16 02:06N 38°45' E 121°26'425790.2
2014-Apr-16 01:33N 35°07' E 129°03'462237683.9
2014-Apr-16 01:33N 32°02' E 120°35'70096874.1
2014-Apr-16 01:33N 22°08' E 113°40'187737.0
2014-Apr-16 01:18N 23°11' E 116°51'567769.8
2014-Apr-16 00:33N 32°02' E 120°35'696626444.5
2014-Apr-16 00:33N 22°10' E 113°43'569542.9
2014-Apr-16 00:33N 23°04' E 113°29'109127269.6
2014-Apr-16 00:31N 35°07' E 129°04'109012422.8
2014-Apr-16 00:25N 23°04' E 113°30'58440.6
2014-Apr-16 00:18N 22°18' E 114°07'678920.8
2014-Apr-15 23:33N 32°02' E 120°35'69592627.2
2014-Apr-15 23:33N 22°12' E 113°43'545867.2
2014-Apr-15 23:32N 23°04' E 113°29'77071122.5
2014-Apr-15 23:32N 34°50' E 119°23'2031744.2
2014-Apr-15 23:25N 37°03' E 122°32'96126023.7
2014-Apr-15 23:23N 23°04' E 113°30'657797.8
2014-Apr-15 22:33N 32°02' E 120°35'692177984.8
2014-Apr-15 22:33N 22°15' E 113°42'9983592454.6
2014-Apr-15 22:33N 36°59' E 122°36'959111419.3
2014-Apr-15 22:32N 23°04' E 113°29'655124029.0
2014-Apr-15 22:32N 32°01' E 120°31'6545949.1
2014-Apr-15 22:25N 23°04' E 113°30'5866.3
2014-Apr-15 21:33N 22°18' E 114°07'5813912.3
2014-Apr-15 21:33N 23°04' E 113°29'654138440.3
2014-Apr-15 21:33N 32°02' E 120°28'3071106969.8
2014-Apr-15 21:33N 36°53' E 122°29'791711781.5
2014-Apr-15 21:33N 24°13' E 118°13'48564643.2
2014-Apr-15 21:32N 32°02' E 120°35'68821360.6
2014-Apr-15 21:30N 22°19' E 113°43'455387.9
2014-Apr-15 21:30N 23°03' E 113°31'491257.2
2014-Apr-15 21:28N 22°14' E 113°35'51214.4
2014-Apr-15 21:13N 23°04' E 113°30'652977.0
2014-Apr-15 20:33N 32°02' E 120°26'72930.0
2014-Apr-15 20:33N 32°02' E 120°35'6572365289.1
2014-Apr-15 20:33N 23°04' E 113°29'431093.2
2014-Apr-15 20:31N 22°24' E 113°43'412711.3
2014-Apr-15 20:30N 23°03' E 113°31'221.8
2014-Apr-15 20:25N 23°04' E 113°30'95312759.2
2014-Apr-15 20:21N 36°56' E 122°28'3201454.6
AWS2014-Apr-15 20:08N 31°57' E 120°08'6401111.1
2014-Apr-15 19:33N 23°04' E 113°29'65297763.5
2014-Apr-15 19:33N 32°01' E 120°25'191381.9
2014-Apr-15 19:32N 31°58' E 120°04'272846.3
2014-Apr-15 19:31N 32°02' E 120°35'30812755.0
2014-Apr-15 19:30N 36°56' E 122°28'95312618.5
2014-Apr-15 19:25N 23°04' E 113°30'425268.5
2014-Apr-15 19:25N 22°27' E 113°53'412538.3
2014-Apr-15 19:24N 23°03' E 113°31'41123.7
2014-Apr-15 19:04N 22°23' E 113°42'6861355.4
2014-Apr-15 18:33N 32°02' E 120°35'657139132.7
2014-Apr-15 18:33N 23°04' E 113°29'651390468.1
2014-Apr-15 18:33N 32°01' E 120°25'312124826.3
2014-Apr-15 18:33N 36°56' E 122°28'314125617.6
AWS2014-Apr-15 18:33N 31°60' E 120°21'8438.6
2014-Apr-15 18:32N 31°57' E 120°12'51624763.2
2014-Apr-15 18:30N 23°41' E 117°31'2252688.5
2014-Apr-15 18:25N 23°04' E 113°30'265.6
2014-Apr-15 18:24N 23°03' E 113°31'2 2.5
2014-Apr-15 17:34N 23°04' E 113°29'954107349.9
2014-Apr-15 17:33N 36°54' E 122°34'30834622.1
2014-Apr-15 17:32N 32°02' E 120°35'71558.1
AWS2014-Apr-15 17:32N 32°02' E 120°27'131695.1
2014-Apr-15 17:32N 31°56' E 120°13'8591.6
2014-Apr-15 17:31N 31°59' E 120°22'64944920.6
2014-Apr-15 17:30N 23°03' E 113°31'1242.4
2014-Apr-15 17:13N 22°51' E 113°34'13766.5
2014-Apr-15 17:12N 23°04' E 113°29'6571011.7
2014-Apr-15 16:33N 32°02' E 120°35'2010064.1
2014-Apr-15 16:33N 31°56' E 120°13'642135858.1
2014-Apr-15 16:33N 23°04' E 113°29'64468229.6
2014-Apr-15 16:32N 31°57' E 120°18'644463943.1
2014-Apr-15 16:32N 23°04' E 113°29'9656373.5
2014-Apr-15 16:23N 37°02' E 122°42'97415184.5
2014-Apr-15 16:19N 22°51' E 113°34'45538.6
2014-Apr-15 16:14N 22°19' E 114°07'551513.3
2014-Apr-15 16:12N 23°03' E 113°31'41300.7
2014-Apr-15 16:04N 22°23' E 113°42'4385.5
2014-Apr-15 15:33N 23°04' E 113°29'64244414.8
2014-Apr-15 15:33N 31°56' E 120°13'64272171.1
2014-Apr-15 15:32N 23°04' E 113°29'985886675.6
2014-Apr-15 15:32N 37°40' E 122°11'34850073.9
2014-Apr-15 15:32N 32°02' E 120°35'6575246.6
2014-Apr-15 15:24N 23°03' E 113°31'12146.6
2014-Apr-15 15:19N 22°51' E 113°34'6486967.6
2014-Apr-15 15:14N 31°56' E 120°11'766241.6
2014-Apr-15 15:13N 31°21' E 121°31'6294.8
2014-Apr-15 14:34N 32°02' E 120°35'6571182619.2
2014-Apr-15 14:33N 23°04' E 113°29'64252489.4
2014-Apr-15 14:33N 31°56' E 120°13'64253708.3
2014-Apr-15 14:32N 23°04' E 113°29'141027.5
2014-Apr-15 14:31N 22°51' E 113°34'666141053.4
2014-Apr-15 14:31N 31°24' E 121°31'65946503.4
2014-Apr-15 14:30N 23°03' E 113°31'657339.1
2014-Apr-15 12:34N 32°02' E 120°35'657295659.3
2014-Apr-15 12:34N 23°04' E 113°29'65932944.7
2014-Apr-15 12:32N 31°28' E 121°27'65920809.8
2014-Apr-15 12:31N 23°03' E 113°31'657694.5
2014-Apr-15 11:34N 32°02' E 120°35'697626973.7
2014-Apr-15 11:34N 22°14' E 113°35'517947.5
2014-Apr-15 11:33N 23°04' E 113°29'64623733.3
2014-Apr-15 11:32N 31°59' E 120°19'64635256.8
2014-Apr-15 11:31N 23°03' E 113°31'652688.3
2014-Apr-15 10:34N 32°01' E 120°25'82776.5
2014-Apr-15 10:34N 32°02' E 120°35'1017978.9
2014-Apr-15 10:34N 32°00' E 120°23'650146228.2
2014-Apr-15 10:33N 23°04' E 113°29'245.0
2014-Apr-15 10:31N 23°03' E 113°31'648685.3
2014-Apr-15 09:34N 31°59' E 120°21'75279.9
2014-Apr-15 09:34N 32°02' E 120°29'654107063.7
2014-Apr-15 09:33N 23°04' E 113°29'250.4
2014-Apr-15 09:31N 23°03' E 113°31'1 0.8
2014-Apr-15 08:34N 23°02' E 113°31'3976.4
2014-Apr-15 08:34N 23°04' E 113°29'656124382.7
2014-Apr-15 08:33N 32°01' E 120°35'6852465917.2
2014-Apr-15 08:33N 22°21' E 113°46'67626438.2
2014-Apr-15 08:32N 31°58' E 120°20'121272.7
2014-Apr-15 08:31N 32°03' E 120°33'661690.8
2014-Apr-15 07:34N 22°57' E 113°32'659593060.0
2014-Apr-15 07:34N 32°04' E 120°28'660396050.3
2014-Apr-15 07:34N 22°57' E 113°30'178.9
2014-Apr-15 07:33N 22°58' E 113°30'61596.1
2014-Apr-15 07:33N 23°04' E 113°29'4426111.1
2014-Apr-15 07:33N 22°23' E 113°45'683690.8
2014-Apr-15 06:34N 32°04' E 120°28'656124243.6
2014-Apr-15 06:33N 23°04' E 113°29'67441.4
2014-Apr-15 06:33N 22°58' E 113°30'376123.9
2014-Apr-15 06:33N 22°23' E 113°45'316645.8
2014-Apr-15 06:33N 22°53' E 113°34'1221144.8
2014-Apr-15 06:33N 23°04' E 113°29'656669.3
2014-Apr-15 05:34N 32°04' E 120°28'657102814.3
2014-Apr-15 05:33N 23°05' E 113°26'72242.1
2014-Apr-15 05:33N 22°58' E 113°30'382691.0
2014-Apr-15 05:32N 22°23' E 113°46'441831.9
2014-Apr-15 05:31N 23°04' E 113°29'656334.2
2014-Apr-15 03:33N 32°04' E 120°28'466838953.8
2014-Apr-15 03:33N 35°07' E 129°03'109526116.0
2014-Apr-15 03:31N 22°52' E 113°34'663695.3
2014-Apr-15 02:33N 32°04' E 120°28'66233099.4
2014-Apr-15 02:32N 22°56' E 113°30'409419.8
2014-Apr-15 01:34N 26°45' E 119°43'32296624.7
2014-Apr-15 01:34N 32°04' E 120°28'66295284.0
2014-Apr-15 01:33N 23°03' E 113°19'66134484.5
2014-Apr-15 01:32N 32°00' E 120°33'309222588.1
2014-Apr-15 01:32N 36°55' E 122°28'33514369.7
2014-Apr-15 01:31N 31°22' E 121°37'66688799.3
2014-Apr-15 01:30N 23°02' E 113°22'665705.1
2014-Apr-15 00:34N 31°26' E 121°29'9132769.8
2014-Apr-15 00:33N 29°59' E 121°59'61620159.0
2014-Apr-15 00:32N 23°04' E 113°30'620640.4
2014-Apr-14 23:33N 29°56' E 122°08'625281025.8
2014-Apr-14 23:33N 23°03' E 113°25'659197686.2
2014-Apr-14 23:33N 32°04' E 120°28'65991198.6
2014-Apr-14 23:33N 23°03' E 113°25'4312.8
2014-Apr-14 23:32N 23°04' E 113°29'132202.2
2014-Apr-14 23:32N 22°51' E 113°34'1414.8
2014-Apr-14 22:34N 23°03' E 113°25'6591185582.4
2014-Apr-14 22:34N 32°04' E 120°28'6726750.7
2014-Apr-14 22:33N 31°23' E 121°30'657473127.5
2014-Apr-14 22:33N 23°04' E 113°29'65542864.5
2014-Apr-14 22:32N 32°00' E 120°33'6 5.8
2014-Apr-14 21:34N 32°04' E 120°28'659107780.2
2014-Apr-14 21:33N 23°03' E 113°25'65825742.9
2014-Apr-14 21:32N 32°00' E 120°33'66237836.9
2014-Apr-14 21:31N 22°52' E 113°34'1414.5
2014-Apr-14 20:34N 23°03' E 113°25'4911.6
2014-Apr-14 20:33N 23°04' E 113°29'656168602.2
2014-Apr-14 20:33N 32°04' E 120°28'6165.2
2014-Apr-14 20:31N 32°00' E 120°33'682715.8
2014-Apr-14 20:30N 31°13' E 121°30'7378.7
2014-Apr-14 19:34N 32°04' E 120°28'656262268.1
2014-Apr-14 19:33N 23°04' E 113°29'4514.3
2014-Apr-14 19:33N 23°03' E 113°25'4510050.9
2014-Apr-14 19:33N 22°27' E 113°53'4545.4
2014-Apr-14 18:34N 23°03' E 113°25'659237114.7
2014-Apr-14 18:33N 32°04' E 120°28'65639332.1
2014-Apr-14 18:32N 23°04' E 113°30'0 0.5
2014-Apr-14 17:33N 23°04' E 113°29'44807.3
2014-Apr-14 17:33N 23°03' E 113°25'651180199.9
2014-Apr-14 17:33N 31°59' E 120°21'64855509.5
2014-Apr-14 17:32N 23°04' E 113°30'65647198.2
2014-Apr-14 17:31N 32°04' E 120°28'659682.1
2014-Apr-14 16:34N 23°03' E 113°25'4211.2
2014-Apr-14 16:32N 23°04' E 113°30'65641401.9
2014-Apr-14 16:31N 32°04' E 120°28'2509.8
2014-Apr-14 16:31N 32°02' E 120°28'66191513.6
2014-Apr-14 16:31N 22°52' E 113°34'663697.7
2014-Apr-14 15:34N 32°04' E 120°28'65991197.3
2014-Apr-14 15:33N 23°03' E 113°25'4288.0
2014-Apr-14 15:32N 23°04' E 113°30'65573653.0
2014-Apr-14 15:32N 32°00' E 120°33'663113704.2
2014-Apr-14 15:31N 22°51' E 113°34'662686.7
2014-Apr-14 14:34N 32°02' E 120°27'656393578.1
2014-Apr-14 14:33N 23°03' E 113°25'4889.7
2014-Apr-14 14:33N 23°04' E 113°29'657337819.4
2014-Apr-14 14:33N 32°00' E 120°37'91413.6
2014-Apr-14 14:33N 32°04' E 120°28'65681375.5
2014-Apr-14 14:32N 23°04' E 113°30'131219.5
2014-Apr-14 14:32N 22°51' E 113°34'171.0
2014-Apr-14 14:31N 22°52' E 113°34'1414.5
2014-Apr-14 13:34N 23°03' E 113°25'659474222.4
2014-Apr-14 13:34N 32°04' E 120°28'656181605.0
2014-Apr-14 13:33N 23°04' E 113°28'64724534.4
2014-Apr-14 13:32N 31°59' E 120°21'650330.3
2014-Apr-14 11:34N 23°03' E 113°25'252711.7
2014-Apr-14 11:33N 22°43' E 113°41'66854654.9
2014-Apr-14 11:32N 32°04' E 120°28'65628783.3
2014-Apr-14 11:31N 23°04' E 113°30'4 4.4
2014-Apr-14 10:34N 23°00' E 113°32'41626.1
2014-Apr-14 10:33N 23°04' E 113°30'656472173.8
2014-Apr-14 10:33N 32°04' E 120°28'659592782.3
2014-Apr-14 10:33N 23°03' E 113°25'4213.9
2014-Apr-14 10:32N 23°04' E 113°30'467872.3
2014-Apr-14 10:32N 22°19' E 113°37'4647.4
2014-Apr-14 09:34N 23°03' E 113°25'659118556.5
2014-Apr-14 09:33N 32°04' E 120°28'44261135.0
2014-Apr-14 09:33N 39°05' E 117°44'99320431.7
2014-Apr-14 09:30N 22°56' E 113°30'662705.1
2014-Apr-14 08:34N 32°04' E 120°28'659182403.0
2014-Apr-14 08:33N 23°03' E 113°25'101996.9
2014-Apr-14 08:33N 22°56' E 113°33'341334.5
2014-Apr-14 08:31N 22°29' E 113°10'256490.1
2014-Apr-14 08:31N 22°17' E 113°35'4648.1
2014-Apr-14 07:33N 23°03' E 113°25'65938871.0
2014-Apr-14 07:32N 32°04' E 120°28'65676127.8
2014-Apr-14 07:32N 23°04' E 113°30'474808.1
2014-Apr-14 07:31N 22°17' E 113°35'2356708.6
2014-Apr-14 07:29N 23°45' E 117°31'524565.5
2014-Apr-14 06:34N 32°04' E 120°28'659148194.5
2014-Apr-14 06:33N 23°03' E 113°25'6262252917.8
2014-Apr-14 06:33N 29°56' E 122°11'15669995.1
2014-Apr-14 06:33N 31°59' E 120°21'6871235970.3
2014-Apr-14 06:33N 22°15' E 113°36'2326973.6
2014-Apr-14 06:31N 23°39' E 117°31'22462074.6
2014-Apr-14 06:31N 23°03' E 113°30'62225154.9
2014-Apr-14 06:29N 29°56' E 122°11'7 7.3
2014-Apr-14 05:33N 29°55' E 122°03'62067634.0
2014-Apr-14 05:33N 23°03' E 113°25'65998797.1
2014-Apr-14 05:33N 32°04' E 120°28'69771641.7
2014-Apr-14 05:32N 22°13' E 113°35'695131598.3
2014-Apr-14 05:32N 32°02' E 120°28'52149403.0
2014-Apr-14 05:31N 23°45' E 117°31'52475.1
2014-Apr-13 22:33N 32°04' E 120°28'685064.8
2014-Apr-13 22:32N 31°25' E 121°33'66370232.1
2014-Apr-13 22:31N 23°03' E 113°25'14893.8
2014-Apr-13 22:30N 22°51' E 113°33'6647181.3
2014-Apr-13 22:25N 31°60' E 120°36'4 4.2
2014-Apr-13 21:33N 32°01' E 120°32'41850.2
2014-Apr-13 21:33N 32°04' E 120°28'659103092.6
2014-Apr-13 21:32N 23°03' E 113°25'66388435.8
2014-Apr-13 21:32N 31°25' E 121°33'6605475.0
2014-Apr-13 21:25N 23°04' E 113°29'110.4
2014-Apr-13 21:16N 23°03' E 113°30'656927.2
2014-Apr-13 20:34N 32°04' E 120°28'66434661.4
2014-Apr-13 20:32N 22°51' E 113°33'66868669.2
2014-Apr-13 20:32N 31°25' E 121°33'663198981.8
2014-Apr-13 20:32N 23°03' E 113°25'415.0
2014-Apr-13 20:16N 23°04' E 113°29'1497.3
2014-Apr-13 20:07N 22°51' E 113°34'6641179.1
2014-Apr-13 19:33N 32°04' E 120°28'659215555.6
2014-Apr-13 19:33N 23°03' E 113°25'14268.5
2014-Apr-13 19:30N 22°51' E 113°33'13146.3
2014-Apr-13 19:25N 23°04' E 113°29'6608279.3
2014-Apr-13 19:20N 31°25' E 121°33'664067.4
2014-Apr-13 19:19N 32°02' E 120°29'65513388.3
2014-Apr-13 19:16N 23°03' E 113°30'2281898.4
2014-Apr-13 19:09N 23°43' E 117°34'524880.8
2014-Apr-13 18:33N 32°04' E 120°28'525209962.1
2014-Apr-13 18:33N 23°42' E 117°36'23456112.1
2014-Apr-13 18:33N 23°03' E 113°25'66310382.7
2014-Apr-13 18:29N 31°24' E 121°34'66038329.2
2014-Apr-13 18:28N 23°04' E 113°29'115.2
2014-Apr-13 18:22N 23°03' E 113°30'121491.5
2014-Apr-13 18:21N 22°51' E 113°33'6632735.7
2014-Apr-13 18:07N 32°02' E 120°29'0 0.0
2014-Apr-13 17:33N 32°02' E 120°29'3327.0
2014-Apr-13 17:33N 32°04' E 120°28'659158075.3
2014-Apr-13 17:33N 23°03' E 113°25'2405539.6
2014-Apr-13 17:30N 23°44' E 117°43'5035602.4
2014-Apr-13 17:25N 31°20' E 121°42'6622381887.2
2014-Apr-13 17:25N 23°04' E 113°29'13155.3
2014-Apr-13 17:19N 22°51' E 113°33'1275.4
2014-Apr-13 17:10N 23°03' E 113°30'6521074.7
2014-Apr-13 16:33N 32°00' E 120°27'4890.7
2014-Apr-13 16:33N 32°04' E 120°28'65971852.4
2014-Apr-13 16:33N 23°03' E 113°25'29483.1
2014-Apr-13 16:29N 22°38' E 113°41'271461.8
2014-Apr-13 16:28N 23°03' E 113°30'1381.9
2014-Apr-13 16:28N 23°04' E 113°29'648717.4
2014-Apr-13 15:33N 31°58' E 120°22'828750.3
2014-Apr-13 15:33N 32°04' E 120°28'668300650.5
2014-Apr-13 15:33N 22°43' E 113°40'3054427.8
2014-Apr-13 15:33N 22°20' E 113°19'433112.8
2014-Apr-13 15:32N 23°03' E 113°25'25029057.3
2014-Apr-13 15:32N 23°50' E 117°53'246912.1
2014-Apr-13 15:16N 23°04' E 113°29'13385.5
2014-Apr-13 15:14N 22°51' E 113°34'12190.9
2014-Apr-13 15:10N 23°03' E 113°30'5 7.7
2014-Apr-13 14:33N 23°03' E 113°25'659474222.4
2014-Apr-13 14:33N 32°04' E 120°28'6567359.4
2014-Apr-13 14:28N 23°03' E 113°30'1891.1
2014-Apr-13 14:28N 23°04' E 113°29'1973.7
2014-Apr-13 14:12N 22°45' E 113°31'191017.1
2014-Apr-13 14:11N 23°04' E 113°29'4 6.1
2014-Apr-13 13:33N 23°03' E 113°25'14498.8
2014-Apr-13 13:31N 22°51' E 113°34'6641195569.6
2014-Apr-13 13:31N 32°04' E 120°28'6568676.1
2014-Apr-13 13:27N 23°04' E 113°30'113.4
2014-Apr-13 13:22N 23°03' E 113°30'19598.6
2014-Apr-13 13:20N 22°44' E 113°26'20168.3
2014-Apr-13 13:13N 23°04' E 113°29'13112.1
2014-Apr-13 13:05N 22°51' E 113°33'1426.5
2014-Apr-13 12:33N 23°03' E 113°25'5344.9
2014-Apr-13 12:33N 23°03' E 113°30'65650260.4
2014-Apr-13 12:32N 32°04' E 120°28'66468317.7
2014-Apr-13 12:31N 22°51' E 113°34'2562180.0
2014-Apr-13 12:24N 23°58' E 118°03'2562281.3
2014-Apr-13 12:17N 23°04' E 113°30'132148.1
2014-Apr-13 12:17N 22°51' E 113°33'13535.8
2014-Apr-13 12:16N 23°04' E 113°29'181264.2
2014-Apr-13 12:15N 22°48' E 113°20'2262557.4
2014-Apr-13 12:09N 22°33' E 117°24'222366.8
2014-Apr-13 11:33N 23°03' E 113°25'6591185556.0
2014-Apr-13 11:33N 32°04' E 120°28'65736398.2
2014-Apr-13 11:32N 23°01' E 113°31'25510802.6
2014-Apr-13 11:30N 23°58' E 118°03'25615106.4
2014-Apr-13 11:29N 23°04' E 113°30'116.1
2014-Apr-13 11:28N 23°04' E 113°29'656721.2
2014-Apr-13 10:33N 32°04' E 120°28'65644561.7
2014-Apr-13 10:32N 23°05' E 113°27'246.4
2014-Apr-13 10:29N 23°04' E 113°30'13502.3
2014-Apr-13 10:28N 22°52' E 113°34'7814514.7
2014-Apr-13 10:18N 34°49' E 119°30'7723316.2
2014-Apr-13 10:04N 23°04' E 113°29'5 9.0
2014-Apr-13 09:33N 22°60' E 113°31'65822146.0
2014-Apr-13 09:32N 32°04' E 120°28'664108709.9
2014-Apr-13 09:31N 22°51' E 113°33'13416.2
2014-Apr-13 09:29N 23°04' E 113°30'51273.1
2014-Apr-13 09:18N 22°14' E 113°35'51205.9
2014-Apr-13 09:04N 23°04' E 113°29'1326.6
2014-Apr-13 08:33N 22°51' E 113°33'66474738.7
2014-Apr-13 08:33N 32°04' E 120°28'6567541.4
2014-Apr-13 08:28N 23°04' E 113°29'111590.4
2014-Apr-13 08:27N 22°53' E 113°31'40291.1
2014-Apr-13 08:19N 22°14' E 113°35'511957.4
2014-Apr-13 08:17N 23°04' E 113°30'51252.6
2014-Apr-13 08:05N 22°13' E 113°35'3969.6
2014-Apr-13 07:32N 22°51' E 113°33'66431888.3
2014-Apr-13 07:31N 32°04' E 120°28'65612489.1
2014-Apr-13 07:28N 23°04' E 113°29'0 0.9
2014-Apr-13 07:25N 23°04' E 113°29'521819.4
2014-Apr-13 07:23N 22°13' E 113°35'38589.1
2014-Apr-13 07:19N 22°51' E 113°34'664872.1
2014-Apr-13 06:33N 32°04' E 120°28'66418540.0
2014-Apr-13 06:31N 22°51' E 113°33'39997.4
2014-Apr-13 06:29N 22°13' E 113°35'52757.5
2014-Apr-13 06:25N 23°04' E 113°29'95025531.1
2014-Apr-13 06:23N 36°53' E 122°26'9507993.1
2014-Apr-13 06:16N 23°04' E 113°29'656854.0
2014-Apr-13 05:29N 32°04' E 120°28'664217421.6
2014-Apr-13 05:29N 22°51' E 113°33'395332.9
2014-Apr-13 05:29N 22°13' E 113°35'522351.3
2014-Apr-13 05:28N 23°04' E 113°29'0 0.4
2014-Apr-13 05:22N 23°04' E 113°29'656802.1
2014-Apr-13 04:33N 32°04' E 120°28'1214130.7
2014-Apr-13 04:33N 31°58' E 120°17'64516457.8
2014-Apr-13 04:30N 23°04' E 113°29'13336.2
2014-Apr-13 04:28N 22°51' E 113°33'13236.3
2014-Apr-13 04:25N 23°04' E 113°29'52377.8
2014-Apr-13 04:16N 22°13' E 113°35'10356197.7
2014-Apr-13 04:06N 39°05' E 117°44'1 2.7
2014-Apr-13 03:33N 39°05' E 117°46'443398258.2
2014-Apr-13 03:33N 32°01' E 120°22'71019.7
2014-Apr-13 03:33N 32°04' E 120°28'6622382083.7
2014-Apr-13 03:33N 22°57' E 113°30'653.9
2014-Apr-13 03:26N 22°51' E 113°33'13568.1
2014-Apr-13 03:25N 23°04' E 113°29'521548.7
2014-Apr-13 03:23N 22°13' E 113°35'696844.5
2014-Apr-13 02:33N 32°04' E 120°28'665104092.1
2014-Apr-13 02:33N 22°55' E 113°27'65965919.4
2014-Apr-13 02:32N 32°01' E 120°22'44211880.8
2014-Apr-13 02:30N 39°05' E 117°46'98510814.3
2014-Apr-13 02:25N 23°04' E 113°29'6283606.5
2014-Apr-13 02:14N 29°57' E 122°19'630927.1
2014-Apr-13 01:33N 22°59' E 113°32'65336168.9
2014-Apr-13 01:32N 32°01' E 120°22'61404.7
2014-Apr-13 01:32N 32°04' E 120°28'46815052.7
2014-Apr-13 01:30N 24°30' E 118°17'45749905.0
2014-Apr-13 01:30N 31°59' E 120°02'79354.9
2014-Apr-13 01:16N 31°28' E 121°27'102755.0
2014-Apr-13 01:08N 29°57' E 122°19'66010904.5
2014-Apr-13 01:04N 22°13' E 113°35'6811310.3
2014-Apr-13 00:33N 31°57' E 120°07'640121171.5
2014-Apr-13 00:33N 23°04' E 113°28'656295157.8
2014-Apr-13 00:33N 32°04' E 120°28'6624.6
2014-Apr-13 00:32N 32°01' E 120°22'681837.8
2014-Apr-13 00:30N 31°26' E 121°30'65916832.5
2014-Apr-13 00:28N 23°04' E 113°29'656719.2
2014-Apr-12 23:33N 32°04' E 120°28'6592371129.3
2014-Apr-12 23:33N 23°03' E 113°25'644128834.8
2014-Apr-12 23:33N 31°57' E 120°12'16215745.6
2014-Apr-12 23:32N 29°57' E 122°19'971472.8
2014-Apr-12 23:28N 31°25' E 121°32'692280.2
2014-Apr-12 23:26N 32°01' E 120°22'6502866.9
2014-Apr-12 23:13N 23°04' E 113°29'6561001.9
2014-Apr-12 22:33N 32°04' E 120°28'121981.3
2014-Apr-12 22:33N 31°58' E 120°17'16010260.2
2014-Apr-12 22:32N 29°57' E 122°19'63233439.5
2014-Apr-12 22:31N 23°03' E 113°25'66315694.3
2014-Apr-12 22:28N 31°25' E 121°32'691883.8
2014-Apr-12 22:26N 32°01' E 120°22'69110536.9
2014-Apr-12 22:22N 22°13' E 113°35'1 5.8
2014-Apr-12 22:12N 22°14' E 113°35'51340.3
2014-Apr-12 22:04N 23°04' E 113°29'4 7.8
2014-Apr-12 21:33N 23°03' E 113°25'51700.4
2014-Apr-12 21:28N 22°13' E 113°35'524762.3
2014-Apr-12 21:28N 23°04' E 113°29'51960.0
2014-Apr-12 21:24N 22°14' E 113°35'6609062.8
2014-Apr-12 21:20N 29°57' E 122°19'1584550.8
2014-Apr-12 21:18N 32°00' E 120°24'5560.1
2014-Apr-12 21:17N 32°04' E 120°28'63210.6
2014-Apr-12 21:17N 32°01' E 120°22'6 8.5
2014-Apr-12 20:33N 32°04' E 120°28'23536.3
2014-Apr-12 20:33N 32°02' E 120°28'6546824.7
2014-Apr-12 20:28N 23°04' E 113°29'62827916.2
2014-Apr-12 20:26N 29°57' E 122°19'1593224.5
2014-Apr-12 20:23N 32°01' E 120°22'6 7.5
2014-Apr-12 19:33N 32°04' E 120°28'7470.3
2014-Apr-12 19:33N 32°01' E 120°35'659118670.6
2014-Apr-12 19:32N 23°03' E 113°25'65312771.9
2014-Apr-12 19:29N 32°01' E 120°22'1593021.0
2014-Apr-12 19:26N 29°57' E 122°19'6283577.9
2014-Apr-12 19:16N 23°04' E 113°29'52266.9
2014-Apr-12 19:04N 22°13' E 113°35'51100.2
2014-Apr-12 18:33N 23°03' E 113°25'63233439.5
2014-Apr-12 18:32N 29°57' E 122°19'6609213.9
2014-Apr-12 18:28N 22°13' E 113°35'52928.8
2014-Apr-12 18:25N 23°04' E 113°29'65641411.1
2014-Apr-12 18:24N 32°04' E 120°28'6113.4
2014-Apr-12 18:20N 32°01' E 120°22'7259139000.9
2014-Apr-12 18:17N 20°38' W 105°15'787310614.9
2014-Apr-12 17:33N 23°03' E 113°25'51632.9
2014-Apr-12 17:28N 22°13' E 113°35'5211608.2
2014-Apr-12 17:28N 23°04' E 113°29'6565990.9
2014-Apr-12 17:21N 32°04' E 120°28'15911438.7
2014-Apr-12 17:20N 29°57' E 122°19'1593317.8
2014-Apr-12 17:17N 32°01' E 120°22'653871.7
2014-Apr-12 16:32N 23°03' E 113°25'4023994.4
2014-Apr-12 16:32N 22°29' E 113°47'19108.7
2014-Apr-12 16:22N 22°13' E 113°35'6968797.7
2014-Apr-12 16:17N 32°04' E 120°28'6568907.5
2014-Apr-12 16:13N 23°04' E 113°29'33360.7
2014-Apr-12 16:07N 22°36' E 113°09'6891231.0
2014-Apr-12 15:33N 32°04' E 120°28'659215557.1
2014-Apr-12 15:33N 23°03' E 113°25'65337302.2
2014-Apr-12 15:32N 32°01' E 120°22'159114792.8
2014-Apr-12 15:32N 29°57' E 122°19'64017077.8
2014-Apr-12 15:30N 22°45' E 113°31'32884.5
2014-Apr-12 15:28N 22°13' E 113°35'5215488.4
2014-Apr-12 15:28N 23°04' E 113°29'4 4.4
2014-Apr-12 14:33N 23°03' E 113°25'659118556.4
2014-Apr-12 14:33N 32°04' E 120°28'690206893.7
2014-Apr-12 14:33N 22°18' E 113°40'68411090.4
2014-Apr-12 14:29N 32°01' E 120°22'6502849.5
2014-Apr-12 14:16N 23°04' E 113°29'52525.0
2014-Apr-12 14:10N 22°13' E 113°35'6961123.4
2014-Apr-12 13:32N 32°04' E 120°28'65912680.0
2014-Apr-12 13:29N 23°03' E 113°25'653470014.8
2014-Apr-12 13:29N 32°01' E 120°22'3101559.6
2014-Apr-12 13:17N 36°53' E 122°30'95232323.8
2014-Apr-12 13:16N 23°04' E 113°29'525161.6
2014-Apr-12 13:15N 22°13' E 113°35'5172.9
2014-Apr-12 12:33N 23°03' E 113°25'65911566.4
2014-Apr-12 12:29N 32°04' E 120°28'62809.3
2014-Apr-12 12:29N 32°01' E 120°22'653696.1
2014-Apr-12 11:33N 23°03' E 113°25'142.1
2014-Apr-12 11:31N 23°04' E 113°25'6582705.2
2014-Apr-12 11:17N 32°04' E 120°28'667.5
2014-Apr-12 11:11N 32°01' E 120°22'1591471.7
2014-Apr-12 11:05N 29°57' E 122°19'631108091.6
2014-Apr-12 11:04N 22°56' E 113°34'1020.1
2014-Apr-12 10:33N 23°03' E 113°25'659474222.2
2014-Apr-12 10:33N 32°04' E 120°28'694.8
2014-Apr-12 10:29N 32°01' E 120°22'69121437.1
2014-Apr-12 10:27N 22°13' E 113°35'521099.4
2014-Apr-12 10:25N 23°04' E 113°29'50740.3
2014-Apr-12 10:20N 22°14' E 113°35'42612.9
2014-Apr-12 10:16N 22°56' E 113°34'41681.7
2014-Apr-12 10:13N 22°19' E 113°53'64418548.4
2014-Apr-12 10:11N 29°57' E 122°19'6321017.4
2014-Apr-12 09:33N 23°03' E 113°25'544192.8
2014-Apr-12 09:33N 22°14' E 113°49'68421034.5
2014-Apr-12 09:31N 31°22' E 121°28'962891.6
2014-Apr-12 09:29N 29°57' E 122°19'62831847.6
2014-Apr-12 09:28N 23°04' E 113°29'5210926.6
2014-Apr-12 09:27N 22°13' E 113°35'2120.1
2014-Apr-12 09:26N 22°14' E 113°35'30517.5
2014-Apr-12 09:23N 22°44' E 113°35'6704812.1
2014-Apr-12 09:15N 32°04' E 120°29'6113.3
2014-Apr-12 09:11N 32°01' E 120°22'65010878.5
2014-Apr-12 09:08N 23°04' E 113°30'4 7.7
2014-Apr-12 08:33N 23°03' E 113°25'585127.1
2014-Apr-12 08:33N 22°07' E 113°42'363401.0
2014-Apr-12 08:32N 22°43' E 113°40'233118.4
2014-Apr-12 08:32N 23°04' E 113°30'62813454.2
2014-Apr-12 08:29N 29°57' E 122°19'961523.3
2014-Apr-12 08:25N 31°22' E 121°28'6919640.2
2014-Apr-12 08:21N 22°14' E 113°36'69510697.2
2014-Apr-12 08:17N 32°04' E 120°29'6152.1
2014-Apr-12 08:14N 32°01' E 120°22'65022494.3
2014-Apr-12 08:13N 23°04' E 113°29'513649.4
2014-Apr-12 08:12N 22°14' E 113°35'1 6.8
2014-Apr-12 08:05N 22°15' E 113°35'425377.7
2014-Apr-12 08:04N 22°56' E 113°34'658996.3
2014-Apr-12 07:25N 31°22' E 121°28'658394638.9
2014-Apr-12 07:25N 23°03' E 113°25'65981745.9
2014-Apr-12 07:24N 32°04' E 120°29'69531270.3
2014-Apr-12 07:23N 22°15' E 113°35'142.6
2014-Apr-12 07:21N 22°14' E 113°36'103647210.3
2014-Apr-12 07:19N 39°04' E 118°03'98815133.7
2014-Apr-12 07:16N 23°04' E 113°29'947.3
2014-Apr-12 07:04N 22°56' E 113°34'6541267.4
2014-Apr-12 06:33N 31°59' E 120°26'653783667.9
2014-Apr-12 06:33N 23°03' E 113°25'488603.4
2014-Apr-12 06:33N 22°16' E 113°36'68756240.1
2014-Apr-12 06:32N 32°01' E 120°22'63770.9
2014-Apr-12 06:32N 32°04' E 120°29'662411.9
2014-Apr-12 06:31N 31°22' E 121°28'69123908.0
2014-Apr-12 06:29N 22°15' E 113°35'659338983.8
2014-Apr-12 06:29N 29°57' E 122°19'6316005.1
2014-Apr-12 06:22N 22°56' E 113°34'928.0
2014-Apr-12 06:04N 23°04' E 113°29'6551305.4
2014-Apr-12 05:33N 31°22' E 121°28'658236786.7
2014-Apr-12 05:33N 23°03' E 113°25'659592675.3
2014-Apr-12 05:33N 32°04' E 120°29'21650.2
2014-Apr-12 05:33N 32°02' E 120°30'72374.5
2014-Apr-12 05:33N 31°60' E 120°22'1108.0
2014-Apr-12 05:32N 32°01' E 120°22'6508151.1
2014-Apr-12 05:28N 23°04' E 113°29'50626.0
2014-Apr-12 05:23N 22°15' E 113°35'5017907.8
2014-Apr-12 05:23N 23°04' E 113°30'4 5.4
2014-Apr-12 04:33N 23°03' E 113°25'7316377.5
2014-Apr-12 04:33N 21°51' E 113°13'726124381.2
2014-Apr-12 04:33N 32°04' E 120°29'6905.4
2014-Apr-12 04:32N 32°01' E 120°22'443797214.9
2014-Apr-12 04:32N 39°05' E 117°45'98582494.0
2014-Apr-12 04:32N 23°04' E 113°30'12438.0
2014-Apr-12 04:30N 22°54' E 113°22'99967853.2
2014-Apr-12 04:29N 39°04' E 118°03'1035207000.1
2014-Apr-12 04:29N 22°15' E 113°35'428364.2
2014-Apr-12 04:28N 22°56' E 113°34'9623.1
2014-Apr-12 04:28N 23°04' E 113°29'28925967.2
2014-Apr-12 04:27N 23°59' E 118°38'4685725.3
2014-Apr-12 04:22N 31°22' E 121°28'658811.2
2014-Apr-12 03:33N 23°03' E 113°25'91144.7
2014-Apr-12 03:33N 22°55' E 113°26'665399107.8
2014-Apr-12 03:33N 32°04' E 120°29'72727567.4
2014-Apr-12 03:31N 21°53' E 113°07'1060106041.1
2014-Apr-12 03:31N 39°04' E 117°51'99327074.4
2014-Apr-12 03:28N 22°56' E 113°34'65845562.5
2014-Apr-12 03:28N 31°22' E 121°28'65513090.8
2014-Apr-12 03:25N 23°04' E 113°29'65032492.5
2014-Apr-12 03:23N 32°01' E 120°22'68957709.5
2014-Apr-12 03:23N 22°15' E 113°35'3001737.1
2014-Apr-12 03:12N 23°60' E 118°40'90542295.3
2014-Apr-12 03:11N 39°04' E 118°03'491786.6
2014-Apr-12 02:33N 31°22' E 121°28'658236786.7
2014-Apr-12 02:33N 23°03' E 113°25'658338416.0
2014-Apr-12 02:33N 32°04' E 120°28'6368.4
2014-Apr-12 02:32N 32°01' E 120°22'65874060.0
2014-Apr-12 02:32N 22°53' E 113°31'655810.9
2014-Apr-12 02:31N 21°53' E 113°06'741252.8
2014-Apr-12 02:28N 23°04' E 113°29'58486.1
2014-Apr-12 02:20N 22°19' E 114°08'15913.9
2014-Apr-12 02:19N 22°26' E 113°53'21375.2
2014-Apr-12 02:16N 22°14' E 113°35'1036286815.0
2014-Apr-12 02:16N 39°04' E 118°02'9945150.5
2014-Apr-12 02:04N 22°56' E 113°34'1020.1
2014-Apr-12 01:33N 23°03' E 113°25'7522440.1
2014-Apr-12 01:33N 21°51' E 113°05'727523181.9
2014-Apr-12 01:33N 31°22' E 121°28'685451.9
2014-Apr-12 01:32N 32°01' E 120°22'68910982.8
2014-Apr-12 01:29N 22°14' E 113°35'50120.8
2014-Apr-12 01:04N 23°04' E 113°29'4 7.8
2014-Apr-12 00:33N 23°03' E 113°25'65138402.4
2014-Apr-12 00:32N 31°59' E 120°22'72363459.3
2014-Apr-12 00:32N 21°51' E 113°03'77651.5
2014-Apr-12 00:25N 23°04' E 113°29'501464.6
2014-Apr-12 00:22N 22°14' E 113°35'40480.4
2014-Apr-12 00:17N 22°55' E 113°35'41199.6
2014-Apr-12 00:05N 22°14' E 113°35'3667.3
2014-Apr-11 23:33N 21°53' E 113°04'7332936.2
2014-Apr-11 23:33N 23°03' E 113°25'65132987.9
2014-Apr-11 23:32N 31°58' E 120°22'68728113.7
2014-Apr-11 23:30N 22°14' E 113°35'501060.5
2014-Apr-11 23:28N 23°04' E 113°29'4 4.3
2014-Apr-11 22:33N 23°03' E 113°25'7713816.9
2014-Apr-11 22:33N 21°49' E 113°03'79924.3
2014-Apr-11 22:28N 23°04' E 113°29'0 2.6
2014-Apr-11 22:25N 23°04' E 113°29'50445.2
2014-Apr-11 22:18N 22°14' E 113°36'401911.8
2014-Apr-11 22:17N 22°55' E 113°35'1317.4
2014-Apr-11 21:33N 23°03' E 113°25'7313204.6
2014-Apr-11 21:33N 21°53' E 113°03'391090.3
2014-Apr-11 21:30N 22°16' E 113°37'49982.0
2014-Apr-11 21:28N 23°04' E 113°29'64912978.1
2014-Apr-11 21:25N 31°60' E 120°22'64915072.4
2014-Apr-11 21:22N 23°04' E 113°29'6484807.4
2014-Apr-11 21:14N 31°58' E 120°22'651963.4
2014-Apr-11 20:33N 23°03' E 113°25'736775.3
2014-Apr-11 20:33N 21°53' E 113°03'726290452.0
2014-Apr-11 20:33N 32°02' E 120°26'685224297.2
2014-Apr-11 20:32N 22°19' E 113°40'46351.7
2014-Apr-11 20:25N 23°04' E 113°29'0 2.6
2014-Apr-11 20:22N 23°04' E 113°29'6482759.3
2014-Apr-11 20:08N 31°58' E 120°22'6511130.3
2014-Apr-11 19:33N 23°03' E 113°25'6589291.6
2014-Apr-11 19:29N 32°01' E 120°32'92597.1
2014-Apr-11 19:29N 31°58' E 120°22'64829142.6
2014-Apr-11 19:28N 23°04' E 113°29'415125.3
2014-Apr-11 19:27N 22°25' E 113°43'41486.3
2014-Apr-11 19:22N 23°04' E 113°29'63925260.2
2014-Apr-11 19:20N 31°58' E 120°05'6 8.2
2014-Apr-11 18:33N 31°57' E 120°12'64485881.4
2014-Apr-11 18:33N 23°03' E 113°25'391766.8
2014-Apr-11 18:32N 22°30' E 113°48'66814229.6
2014-Apr-11 18:29N 31°58' E 120°22'64829142.6
2014-Apr-11 18:28N 23°04' E 113°29'0 0.5
2014-Apr-11 18:13N 23°04' E 113°29'6583994.4
2014-Apr-11 18:03N 31°26' E 121°28'66132.9
2014-Apr-11 17:33N 31°59' E 120°21'651585624.4
2014-Apr-11 17:33N 23°03' E 113°25'443.8
2014-Apr-11 17:28N 23°04' E 113°29'43117.2
2014-Apr-11 17:06N 22°27' E 113°53'6741245.0
2014-Apr-11 16:33N 32°02' E 120°29'657112691.4
2014-Apr-11 16:33N 23°03' E 113°25'65129305.0
2014-Apr-11 16:31N 31°60' E 120°21'6489973.4
2014-Apr-11 16:28N 23°04' E 113°29'0 1.2
2014-Apr-11 16:22N 23°04' E 113°29'652806.6
2014-Apr-11 15:33N 32°01' E 120°25'111884.8
2014-Apr-11 15:33N 32°00' E 120°38'66010705.7
2014-Apr-11 15:29N 23°03' E 113°25'4126.3
2014-Apr-11 15:28N 23°04' E 113°29'0 1.8
2014-Apr-11 15:22N 23°04' E 113°29'655812.1
2014-Apr-11 14:34N 32°02' E 120°31'6581184437.6
2014-Apr-11 14:33N 23°03' E 113°25'665113992.1
2014-Apr-11 14:33N 32°01' E 120°46'6624834.0
2014-Apr-11 14:25N 23°04' E 113°29'99613175.8
2014-Apr-11 14:20N 37°55' E 122°06'9953537.8
2014-Apr-11 14:04N 23°04' E 113°29'6631290.7
2014-Apr-11 13:33N 31°58' E 120°51'1311928.1
2014-Apr-11 13:33N 32°01' E 120°36'65924226.4
2014-Apr-11 13:31N 23°03' E 113°25'425.4
2014-Apr-11 13:22N 23°04' E 113°29'1161.3
2014-Apr-11 13:11N 22°55' E 113°35'1189.8
2014-Apr-11 13:04N 23°04' E 113°29'75149.9
2014-Apr-11 12:33N 21°53' E 113°04'7337528.0
2014-Apr-11 12:33N 23°03' E 113°25'379105068.6
2014-Apr-11 12:33N 22°33' E 120°15'56811616.9
2014-Apr-11 12:30N 32°00' E 120°42'66420976.8
2014-Apr-11 12:28N 22°55' E 113°35'11835.6
2014-Apr-11 12:28N 23°04' E 113°29'66032535.9
2014-Apr-11 12:26N 31°53' E 120°54'6601956.6
2014-Apr-11 12:06N 23°04' E 113°29'4 6.9
2014-Apr-11 11:33N 23°03' E 113°25'731978.2
2014-Apr-11 11:30N 21°53' E 113°03'73526207.4
2014-Apr-11 11:29N 32°01' E 120°47'6629279.4
2014-Apr-11 11:25N 23°04' E 113°29'7688.2
2014-Apr-11 10:33N 21°52' E 113°03'744909.4
2014-Apr-11 10:32N 23°03' E 113°25'4117.5
2014-Apr-11 10:30N 23°04' E 113°29'0 3.9
2014-Apr-11 10:28N 23°04' E 113°29'561028.3
2014-Apr-11 10:24N 22°12' E 113°06'2125.0
2014-Apr-11 09:34N 21°51' E 113°03'  

Dump ship's entire track history

sailing weather and tide predictions

Victoria — 000000 — position and weather